sensor_id;sensor_type;location;lat;lon;timestamp;P1;durP1;ratioP1;P2;durP2;ratioP2
21258;SDS011;10787;53.364;-1.480;2023-10-09T00:01:06;9.10;;;4.72;;
21258;SDS011;10787;53.364;-1.480;2023-10-09T00:03:57;6.70;;;4.80;;
21258;SDS011;10787;53.364;-1.480;2023-10-09T00:06:45;9.48;;;5.20;;
21258;SDS011;10787;53.364;-1.480;2023-10-09T00:09:30;9.25;;;5.45;;
21258;SDS011;10787;53.364;-1.480;2023-10-09T00:12:18;8.95;;;5.20;;
21258;SDS011;10787;53.364;-1.480;2023-10-09T00:15:06;7.88;;;5.07;;
21258;SDS011;10787;53.364;-1.480;2023-10-09T00:17:56;8.35;;;4.78;;
21258;SDS011;10787;53.364;-1.480;2023-10-09T00:20:42;10.60;;;5.10;;
21258;SDS011;10787;53.364;-1.480;2023-10-09T00:23:27;12.98;;;5.35;;
21258;SDS011;10787;53.364;-1.480;2023-10-09T00:26:12;7.30;;;4.85;;
21258;SDS011;10787;53.364;-1.480;2023-10-09T00:28:56;8.45;;;5.00;;
21258;SDS011;10787;53.364;-1.480;2023-10-09T00:31:43;7.15;;;4.40;;
21258;SDS011;10787;53.364;-1.480;2023-10-09T00:34:33;9.20;;;5.00;;
21258;SDS011;10787;53.364;-1.480;2023-10-09T00:37:23;10.18;;;5.18;;
21258;SDS011;10787;53.364;-1.480;2023-10-09T00:40:09;10.30;;;5.43;;
21258;SDS011;10787;53.364;-1.480;2023-10-09T00:43:04;8.25;;;5.18;;
21258;SDS011;10787;53.364;-1.480;2023-10-09T00:45:54;8.90;;;4.72;;
21258;SDS011;10787;53.364;-1.480;2023-10-09T00:48:40;8.25;;;4.40;;
21258;SDS011;10787;53.364;-1.480;2023-10-09T00:51:24;8.77;;;4.78;;
21258;SDS011;10787;53.364;-1.480;2023-10-09T00:54:10;8.60;;;4.97;;
21258;SDS011;10787;53.364;-1.480;2023-10-09T00:56:58;9.07;;;4.82;;
21258;SDS011;10787;53.364;-1.480;2023-10-09T00:59:51;7.10;;;4.80;;
21258;SDS011;10787;53.364;-1.480;2023-10-09T01:02:43;10.18;;;4.60;;
21258;SDS011;10787;53.364;-1.480;2023-10-09T01:05:28;9.57;;;4.47;;
21258;SDS011;10787;53.364;-1.480;2023-10-09T01:08:13;7.15;;;4.72;;
21258;SDS011;10787;53.364;-1.480;2023-10-09T01:11:00;8.60;;;4.70;;
21258;SDS011;10787;53.364;-1.480;2023-10-09T01:13:53;10.30;;;5.32;;
21258;SDS011;10787;53.364;-1.480;2023-10-09T01:16:43;11.80;;;4.75;;
21258;SDS011;10787;53.364;-1.480;2023-10-09T01:19:27;9.93;;;4.50;;
21258;SDS011;10787;53.364;-1.480;2023-10-09T01:22:14;9.90;;;4.38;;
21258;SDS011;10787;53.364;-1.480;2023-10-09T01:25:00;7.65;;;4.45;;
21258;SDS011;10787;53.364;-1.480;2023-10-09T01:27:49;10.27;;;4.78;;
21258;SDS011;10787;53.364;-1.480;2023-10-09T01:30:34;10.50;;;4.82;;
21258;SDS011;10787;53.364;-1.480;2023-10-09T01:33:24;7.45;;;4.65;;
21258;SDS011;10787;53.364;-1.480;2023-10-09T01:36:11;8.27;;;4.47;;
21258;SDS011;10787;53.364;-1.480;2023-10-09T01:38:59;8.77;;;4.25;;
21258;SDS011;10787;53.364;-1.480;2023-10-09T01:41:50;9.98;;;5.00;;
21258;SDS011;10787;53.364;-1.480;2023-10-09T01:44:53;11.88;;;4.75;;
21258;SDS011;10787;53.364;-1.480;2023-10-09T01:47:38;9.75;;;4.78;;
21258;SDS011;10787;53.364;-1.480;2023-10-09T01:50:23;9.10;;;4.78;;
21258;SDS011;10787;53.364;-1.480;2023-10-09T01:53:11;9.52;;;4.40;;
21258;SDS011;10787;53.364;-1.480;2023-10-09T01:56:11;11.70;;;4.75;;
21258;SDS011;10787;53.364;-1.480;2023-10-09T01:58:59;9.88;;;4.50;;
21258;SDS011;10787;53.364;-1.480;2023-10-09T02:01:49;9.93;;;4.55;;
21258;SDS011;10787;53.364;-1.480;2023-10-09T02:04:38;9.25;;;4.50;;
21258;SDS011;10787;53.364;-1.480;2023-10-09T02:07:23;6.05;;;4.20;;
21258;SDS011;10787;53.364;-1.480;2023-10-09T02:10:13;8.57;;;4.53;;
21258;SDS011;10787;53.364;-1.480;2023-10-09T02:13:21;8.95;;;4.38;;
21258;SDS011;10787;53.364;-1.480;2023-10-09T02:16:14;7.85;;;4.35;;
21258;SDS011;10787;53.364;-1.480;2023-10-09T02:18:59;7.45;;;4.20;;
21258;SDS011;10787;53.364;-1.480;2023-10-09T02:21:50;6.18;;;4.32;;
21258;SDS011;10787;53.364;-1.480;2023-10-09T02:24:38;6.88;;;4.32;;
21258;SDS011;10787;53.364;-1.480;2023-10-09T02:27:32;6.57;;;4.05;;
21258;SDS011;10787;53.364;-1.480;2023-10-09T02:30:38;10.73;;;4.68;;
21258;SDS011;10787;53.364;-1.480;2023-10-09T02:33:25;10.30;;;4.93;;
21258;SDS011;10787;53.364;-1.480;2023-10-09T02:36:12;7.93;;;4.50;;
21258;SDS011;10787;53.364;-1.480;2023-10-09T02:38:56;8.55;;;4.85;;
21258;SDS011;10787;53.364;-1.480;2023-10-09T02:41:41;8.68;;;4.60;;
21258;SDS011;10787;53.364;-1.480;2023-10-09T02:44:33;7.60;;;4.60;;
21258;SDS011;10787;53.364;-1.480;2023-10-09T02:47:23;8.70;;;5.22;;
21258;SDS011;10787;53.364;-1.480;2023-10-09T02:50:15;9.73;;;4.65;;
21258;SDS011;10787;53.364;-1.480;2023-10-09T02:53:06;10.40;;;4.88;;
21258;SDS011;10787;53.364;-1.480;2023-10-09T02:55:53;8.10;;;4.65;;
21258;SDS011;10787;53.364;-1.480;2023-10-09T02:58:55;7.82;;;5.10;;
21258;SDS011;10787;53.364;-1.480;2023-10-09T03:01:52;7.38;;;4.80;;
21258;SDS011;10787;53.364;-1.480;2023-10-09T03:04:36;8.63;;;4.78;;
21258;SDS011;10787;53.364;-1.480;2023-10-09T03:07:23;9.43;;;5.13;;
21258;SDS011;10787;53.364;-1.480;2023-10-09T03:10:07;9.13;;;4.78;;
21258;SDS011;10787;53.364;-1.480;2023-10-09T03:12:53;9.30;;;5.05;;
21258;SDS011;10787;53.364;-1.480;2023-10-09T03:15:38;8.43;;;5.10;;
21258;SDS011;10787;53.364;-1.480;2023-10-09T03:18:22;8.85;;;4.78;;
21258;SDS011;10787;53.364;-1.480;2023-10-09T03:21:07;9.60;;;5.32;;
21258;SDS011;10787;53.364;-1.480;2023-10-09T03:23:55;9.65;;;5.30;;
21258;SDS011;10787;53.364;-1.480;2023-10-09T03:26:40;9.27;;;5.22;;
21258;SDS011;10787;53.364;-1.480;2023-10-09T03:29:24;8.40;;;4.95;;
21258;SDS011;10787;53.364;-1.480;2023-10-09T03:32:11;8.35;;;4.95;;
21258;SDS011;10787;53.364;-1.480;2023-10-09T03:34:55;10.88;;;4.72;;
21258;SDS011;10787;53.364;-1.480;2023-10-09T03:37:39;8.85;;;4.65;;
21258;SDS011;10787;53.364;-1.480;2023-10-09T03:40:23;8.27;;;4.93;;
21258;SDS011;10787;53.364;-1.480;2023-10-09T03:43:09;10.70;;;4.68;;
21258;SDS011;10787;53.364;-1.480;2023-10-09T03:45:54;8.02;;;4.63;;
21258;SDS011;10787;53.364;-1.480;2023-10-09T03:48:41;7.95;;;4.82;;
21258;SDS011;10787;53.364;-1.480;2023-10-09T03:51:28;8.57;;;4.18;;
21258;SDS011;10787;53.364;-1.480;2023-10-09T03:54:13;7.82;;;5.20;;
21258;SDS011;10787;53.364;-1.480;2023-10-09T03:56:59;9.15;;;4.30;;
21258;SDS011;10787;53.364;-1.480;2023-10-09T03:59:43;12.07;;;4.47;;
21258;SDS011;10787;53.364;-1.480;2023-10-09T04:02:30;8.85;;;4.65;;
21258;SDS011;10787;53.364;-1.480;2023-10-09T04:05:15;9.35;;;4.75;;
21258;SDS011;10787;53.364;-1.480;2023-10-09T04:07:59;11.90;;;5.00;;
21258;SDS011;10787;53.364;-1.480;2023-10-09T04:10:45;9.15;;;4.90;;
21258;SDS011;10787;53.364;-1.480;2023-10-09T04:13:45;7.03;;;4.60;;
21258;SDS011;10787;53.364;-1.480;2023-10-09T04:16:33;8.05;;;4.53;;
21258;SDS011;10787;53.364;-1.480;2023-10-09T04:19:18;10.98;;;4.47;;
21258;SDS011;10787;53.364;-1.480;2023-10-09T04:22:05;11.65;;;4.70;;
21258;SDS011;10787;53.364;-1.480;2023-10-09T04:24:52;10.38;;;4.90;;
21258;SDS011;10787;53.364;-1.480;2023-10-09T04:27:37;7.93;;;4.80;;
21258;SDS011;10787;53.364;-1.480;2023-10-09T04:30:21;9.80;;;4.60;;
21258;SDS011;10787;53.364;-1.480;2023-10-09T04:33:07;10.38;;;4.60;;
21258;SDS011;10787;53.364;-1.480;2023-10-09T04:35:55;10.52;;;4.30;;
21258;SDS011;10787;53.364;-1.480;2023-10-09T04:39:02;8.93;;;4.40;;
21258;SDS011;10787;53.364;-1.480;2023-10-09T04:41:47;9.63;;;5.25;;
21258;SDS011;10787;53.364;-1.480;2023-10-09T04:44:31;11.13;;;4.70;;
21258;SDS011;10787;53.364;-1.480;2023-10-09T04:47:19;7.25;;;4.43;;
21258;SDS011;10787;53.364;-1.480;2023-10-09T04:50:09;8.45;;;4.55;;
21258;SDS011;10787;53.364;-1.480;2023-10-09T04:52:58;10.13;;;4.47;;
21258;SDS011;10787;53.364;-1.480;2023-10-09T04:56:02;7.15;;;4.38;;
21258;SDS011;10787;53.364;-1.480;2023-10-09T04:58:48;10.45;;;4.30;;
21258;SDS011;10787;53.364;-1.480;2023-10-09T05:01:32;9.93;;;4.70;;
21258;SDS011;10787;53.364;-1.480;2023-10-09T05:04:19;8.50;;;4.57;;
21258;SDS011;10787;53.364;-1.480;2023-10-09T05:07:18;9.73;;;4.93;;
21258;SDS011;10787;53.364;-1.480;2023-10-09T05:10:38;10.48;;;4.70;;
21258;SDS011;10787;53.364;-1.480;2023-10-09T05:13:37;8.23;;;4.60;;
21258;SDS011;10787;53.364;-1.480;2023-10-09T05:16:21;7.60;;;4.38;;
21258;SDS011;10787;53.364;-1.480;2023-10-09T05:19:06;10.10;;;4.43;;
21258;SDS011;10787;53.364;-1.480;2023-10-09T05:21:50;10.45;;;4.78;;
21258;SDS011;10787;53.364;-1.480;2023-10-09T05:24:36;7.90;;;4.50;;
21258;SDS011;10787;53.364;-1.480;2023-10-09T05:27:29;8.75;;;4.35;;
21258;SDS011;10787;53.364;-1.480;2023-10-09T05:30:31;10.23;;;4.65;;
21258;SDS011;10787;53.364;-1.480;2023-10-09T05:33:17;9.35;;;4.80;;
21258;SDS011;10787;53.364;-1.480;2023-10-09T05:36:17;8.38;;;4.50;;
21258;SDS011;10787;53.364;-1.480;2023-10-09T05:39:15;8.45;;;4.40;;
21258;SDS011;10787;53.364;-1.480;2023-10-09T05:42:25;8.30;;;4.40;;
21258;SDS011;10787;53.364;-1.480;2023-10-09T05:45:21;9.20;;;4.65;;
21258;SDS011;10787;53.364;-1.480;2023-10-09T05:48:24;9.00;;;4.80;;
21258;SDS011;10787;53.364;-1.480;2023-10-09T05:51:08;10.38;;;4.80;;
21258;SDS011;10787;53.364;-1.480;2023-10-09T05:53:52;8.75;;;4.68;;
21258;SDS011;10787;53.364;-1.480;2023-10-09T05:56:55;10.85;;;5.15;;
21258;SDS011;10787;53.364;-1.480;2023-10-09T05:59:58;11.75;;;5.10;;
21258;SDS011;10787;53.364;-1.480;2023-10-09T06:03:15;11.02;;;5.30;;
21258;SDS011;10787;53.364;-1.480;2023-10-09T06:06:02;7.68;;;4.47;;
21258;SDS011;10787;53.364;-1.480;2023-10-09T06:08:47;12.82;;;5.10;;
21258;SDS011;10787;53.364;-1.480;2023-10-09T06:11:51;11.00;;;5.28;;
21258;SDS011;10787;53.364;-1.480;2023-10-09T06:14:40;10.77;;;4.68;;
21258;SDS011;10787;53.364;-1.480;2023-10-09T06:17:24;9.93;;;4.88;;
21258;SDS011;10787;53.364;-1.480;2023-10-09T06:20:11;9.90;;;4.93;;
21258;SDS011;10787;53.364;-1.480;2023-10-09T06:23:15;9.02;;;4.75;;
21258;SDS011;10787;53.364;-1.480;2023-10-09T06:26:00;8.80;;;4.90;;
21258;SDS011;10787;53.364;-1.480;2023-10-09T06:29:04;11.27;;;5.22;;
21258;SDS011;10787;53.364;-1.480;2023-10-09T06:31:58;13.52;;;4.93;;
21258;SDS011;10787;53.364;-1.480;2023-10-09T06:34:43;10.85;;;4.82;;
21258;SDS011;10787;53.364;-1.480;2023-10-09T06:37:40;8.63;;;4.70;;
21258;SDS011;10787;53.364;-1.480;2023-10-09T06:40:47;10.55;;;4.95;;
21258;SDS011;10787;53.364;-1.480;2023-10-09T06:43:35;9.18;;;4.60;;
21258;SDS011;10787;53.364;-1.480;2023-10-09T06:46:26;13.15;;;5.38;;
21258;SDS011;10787;53.364;-1.480;2023-10-09T06:49:11;10.55;;;5.22;;
21258;SDS011;10787;53.364;-1.480;2023-10-09T06:52:16;13.40;;;5.18;;
21258;SDS011;10787;53.364;-1.480;2023-10-09T06:55:20;11.75;;;5.07;;
21258;SDS011;10787;53.364;-1.480;2023-10-09T07:01:06;14.25;;;5.43;;
21258;SDS011;10787;53.364;-1.480;2023-10-09T07:04:09;11.23;;;5.47;;
21258;SDS011;10787;53.364;-1.480;2023-10-09T07:07:03;12.32;;;5.30;;
21258;SDS011;10787;53.364;-1.480;2023-10-09T07:10:04;15.13;;;5.63;;
21258;SDS011;10787;53.364;-1.480;2023-10-09T07:13:09;12.10;;;5.28;;
21258;SDS011;10787;53.364;-1.480;2023-10-09T07:15:54;12.35;;;5.78;;
21258;SDS011;10787;53.364;-1.480;2023-10-09T07:18:57;17.15;;;5.47;;
21258;SDS011;10787;53.364;-1.480;2023-10-09T07:21:53;12.98;;;5.88;;
21258;SDS011;10787;53.364;-1.480;2023-10-09T07:24:37;13.98;;;5.60;;
21258;SDS011;10787;53.364;-1.480;2023-10-09T07:27:30;12.02;;;5.93;;
21258;SDS011;10787;53.364;-1.480;2023-10-09T07:30:27;11.70;;;5.63;;
21258;SDS011;10787;53.364;-1.480;2023-10-09T07:33:15;10.82;;;5.03;;
21258;SDS011;10787;53.364;-1.480;2023-10-09T07:36:00;12.63;;;5.18;;
21258;SDS011;10787;53.364;-1.480;2023-10-09T07:38:57;16.65;;;5.68;;
21258;SDS011;10787;53.364;-1.480;2023-10-09T07:41:43;13.50;;;5.43;;
21258;SDS011;10787;53.364;-1.480;2023-10-09T07:44:39;10.75;;;5.32;;
21258;SDS011;10787;53.364;-1.480;2023-10-09T07:47:29;12.65;;;5.65;;
21258;SDS011;10787;53.364;-1.480;2023-10-09T07:50:36;11.95;;;5.72;;
21258;SDS011;10787;53.364;-1.480;2023-10-09T07:53:24;11.23;;;5.30;;
21258;SDS011;10787;53.364;-1.480;2023-10-09T07:56:12;14.65;;;6.10;;
21258;SDS011;10787;53.364;-1.480;2023-10-09T07:59:05;11.60;;;5.68;;
21258;SDS011;10787;53.364;-1.480;2023-10-09T08:01:54;13.20;;;6.30;;
21258;SDS011;10787;53.364;-1.480;2023-10-09T08:04:42;15.45;;;6.45;;
21258;SDS011;10787;53.364;-1.480;2023-10-09T08:07:33;13.38;;;6.15;;
21258;SDS011;10787;53.364;-1.480;2023-10-09T08:10:21;14.88;;;5.88;;
21258;SDS011;10787;53.364;-1.480;2023-10-09T08:13:05;13.25;;;5.97;;
21258;SDS011;10787;53.364;-1.480;2023-10-09T08:16:09;9.05;;;5.43;;
21258;SDS011;10787;53.364;-1.480;2023-10-09T08:19:00;13.35;;;6.20;;
21258;SDS011;10787;53.364;-1.480;2023-10-09T08:22:04;11.82;;;6.38;;
21258;SDS011;10787;53.364;-1.480;2023-10-09T08:25:11;12.68;;;6.07;;
21258;SDS011;10787;53.364;-1.480;2023-10-09T08:28:15;14.70;;;6.07;;
21258;SDS011;10787;53.364;-1.480;2023-10-09T08:31:18;11.02;;;5.95;;
21258;SDS011;10787;53.364;-1.480;2023-10-09T08:34:17;14.40;;;5.88;;
21258;SDS011;10787;53.364;-1.480;2023-10-09T08:37:11;13.20;;;5.70;;
21258;SDS011;10787;53.364;-1.480;2023-10-09T08:39:56;11.70;;;5.90;;
21258;SDS011;10787;53.364;-1.480;2023-10-09T08:42:41;10.52;;;5.20;;
21258;SDS011;10787;53.364;-1.480;2023-10-09T08:45:37;16.05;;;6.35;;
21258;SDS011;10787;53.364;-1.480;2023-10-09T08:48:25;11.00;;;5.30;;
21258;SDS011;10787;53.364;-1.480;2023-10-09T08:51:11;12.57;;;5.38;;
21258;SDS011;10787;53.364;-1.480;2023-10-09T08:53:55;11.68;;;5.20;;
21258;SDS011;10787;53.364;-1.480;2023-10-09T08:56:40;8.77;;;4.97;;
21258;SDS011;10787;53.364;-1.480;2023-10-09T08:59:32;10.32;;;4.90;;
21258;SDS011;10787;53.364;-1.480;2023-10-09T09:02:24;8.18;;;4.40;;
21258;SDS011;10787;53.364;-1.480;2023-10-09T09:05:17;11.43;;;5.07;;
21258;SDS011;10787;53.364;-1.480;2023-10-09T09:08:11;11.00;;;4.50;;
21258;SDS011;10787;53.364;-1.480;2023-10-09T09:11:17;8.77;;;3.70;;
21258;SDS011;10787;53.364;-1.480;2023-10-09T09:14:06;12.70;;;4.10;;
21258;SDS011;10787;53.364;-1.480;2023-10-09T09:16:56;9.25;;;3.60;;
21258;SDS011;10787;53.364;-1.480;2023-10-09T09:19:41;9.32;;;3.67;;
21258;SDS011;10787;53.364;-1.480;2023-10-09T09:22:26;9.02;;;3.70;;
21258;SDS011;10787;53.364;-1.480;2023-10-09T09:25:10;7.70;;;3.83;;
21258;SDS011;10787;53.364;-1.480;2023-10-09T09:27:55;10.60;;;3.88;;
21258;SDS011;10787;53.364;-1.480;2023-10-09T09:30:41;10.23;;;4.05;;
21258;SDS011;10787;53.364;-1.480;2023-10-09T09:33:26;7.60;;;3.85;;
21258;SDS011;10787;53.364;-1.480;2023-10-09T09:36:14;7.85;;;3.80;;
21258;SDS011;10787;53.364;-1.480;2023-10-09T09:38:58;10.82;;;4.90;;
21258;SDS011;10787;53.364;-1.480;2023-10-09T09:41:45;12.57;;;5.18;;
21258;SDS011;10787;53.364;-1.480;2023-10-09T09:44:33;10.27;;;5.38;;
21258;SDS011;10787;53.364;-1.480;2023-10-09T09:47:27;12.73;;;6.80;;
21258;SDS011;10787;53.364;-1.480;2023-10-09T09:50:13;11.85;;;6.07;;
21258;SDS011;10787;53.364;-1.480;2023-10-09T09:53:02;18.50;;;9.88;;
21258;SDS011;10787;53.364;-1.480;2023-10-09T09:55:51;39.28;;;24.48;;
21258;SDS011;10787;53.364;-1.480;2023-10-09T09:58:39;29.40;;;19.13;;
21258;SDS011;10787;53.364;-1.480;2023-10-09T10:01:28;25.40;;;16.65;;
21258;SDS011;10787;53.364;-1.480;2023-10-09T10:04:18;19.00;;;12.63;;
21258;SDS011;10787;53.364;-1.480;2023-10-09T10:07:06;23.65;;;13.75;;
21258;SDS011;10787;53.364;-1.480;2023-10-09T10:09:54;35.13;;;23.52;;
21258;SDS011;10787;53.364;-1.480;2023-10-09T10:19:01;39.90;;;25.08;;
21258;SDS011;10787;53.364;-1.480;2023-10-09T10:22:22;27.50;;;18.05;;
21258;SDS011;10787;53.364;-1.480;2023-10-09T10:25:12;40.58;;;27.15;;
21258;SDS011;10787;53.364;-1.480;2023-10-09T10:28:25;60.47;;;39.53;;
21258;SDS011;10787;53.364;-1.480;2023-10-09T10:31:29;59.95;;;38.85;;
21258;SDS011;10787;53.364;-1.480;2023-10-09T10:34:52;77.35;;;51.03;;
21258;SDS011;10787;53.364;-1.480;2023-10-09T10:37:40;103.13;;;67.28;;
21258;SDS011;10787;53.364;-1.480;2023-10-09T10:40:45;86.50;;;56.70;;
21258;SDS011;10787;53.364;-1.480;2023-10-09T10:43:30;85.55;;;56.65;;
21258;SDS011;10787;53.364;-1.480;2023-10-09T10:46:40;82.40;;;55.70;;
21258;SDS011;10787;53.364;-1.480;2023-10-09T10:49:28;105.57;;;73.47;;
21258;SDS011;10787;53.364;-1.480;2023-10-09T10:52:23;114.78;;;79.43;;
21258;SDS011;10787;53.364;-1.480;2023-10-09T10:55:59;91.38;;;63.15;;
21258;SDS011;10787;53.364;-1.480;2023-10-09T10:58:57;66.03;;;45.38;;
21258;SDS011;10787;53.364;-1.480;2023-10-09T11:02:10;49.10;;;32.45;;
21258;SDS011;10787;53.364;-1.480;2023-10-09T11:04:55;32.53;;;22.88;;
21258;SDS011;10787;53.364;-1.480;2023-10-09T11:07:40;27.67;;;19.27;;
21258;SDS011;10787;53.364;-1.480;2023-10-09T11:10:24;23.02;;;15.73;;
21258;SDS011;10787;53.364;-1.480;2023-10-09T11:13:20;19.90;;;14.07;;
21258;SDS011;10787;53.364;-1.480;2023-10-09T11:16:18;20.88;;;14.65;;
21258;SDS011;10787;53.364;-1.480;2023-10-09T11:19:21;20.48;;;12.57;;
21258;SDS011;10787;53.364;-1.480;2023-10-09T11:22:12;13.88;;;9.45;;
21258;SDS011;10787;53.364;-1.480;2023-10-09T11:24:57;10.82;;;8.88;;
21258;SDS011;10787;53.364;-1.480;2023-10-09T11:28:01;16.70;;;10.20;;
21258;SDS011;10787;53.364;-1.480;2023-10-09T11:31:06;16.15;;;10.68;;
21258;SDS011;10787;53.364;-1.480;2023-10-09T11:33:54;20.13;;;14.60;;
21258;SDS011;10787;53.364;-1.480;2023-10-09T11:36:38;29.27;;;20.48;;
21258;SDS011;10787;53.364;-1.480;2023-10-09T11:39:34;34.10;;;25.35;;
21258;SDS011;10787;53.364;-1.480;2023-10-09T11:42:18;38.65;;;28.65;;
21258;SDS011;10787;53.364;-1.480;2023-10-09T11:45:20;39.20;;;28.98;;
21258;SDS011;10787;53.364;-1.480;2023-10-09T11:48:18;40.55;;;29.50;;
21258;SDS011;10787;53.364;-1.480;2023-10-09T11:51:25;41.20;;;31.30;;
21258;SDS011;10787;53.364;-1.480;2023-10-09T11:54:09;46.08;;;33.08;;
21258;SDS011;10787;53.364;-1.480;2023-10-09T11:57:13;49.55;;;36.67;;
21258;SDS011;10787;53.364;-1.480;2023-10-09T11:59:59;48.63;;;36.25;;
21258;SDS011;10787;53.364;-1.480;2023-10-09T12:02:44;42.78;;;32.80;;
21258;SDS011;10787;53.364;-1.480;2023-10-09T12:05:28;38.28;;;30.60;;
21258;SDS011;10787;53.364;-1.480;2023-10-09T12:08:12;35.67;;;26.48;;
21258;SDS011;10787;53.364;-1.480;2023-10-09T12:10:59;31.40;;;24.30;;
21258;SDS011;10787;53.364;-1.480;2023-10-09T12:13:50;26.83;;;21.48;;
21258;SDS011;10787;53.364;-1.480;2023-10-09T12:16:39;27.70;;;21.73;;
21258;SDS011;10787;53.364;-1.480;2023-10-09T12:19:34;27.70;;;22.67;;
21258;SDS011;10787;53.364;-1.480;2023-10-09T12:22:21;30.55;;;21.60;;
21258;SDS011;10787;53.364;-1.480;2023-10-09T12:25:10;28.38;;;22.67;;
21258;SDS011;10787;53.364;-1.480;2023-10-09T12:27:54;29.25;;;23.90;;
21258;SDS011;10787;53.364;-1.480;2023-10-09T12:30:41;30.35;;;23.58;;
21258;SDS011;10787;53.364;-1.480;2023-10-09T12:33:25;35.55;;;27.83;;
21258;SDS011;10787;53.364;-1.480;2023-10-09T12:36:12;41.17;;;33.45;;
21258;SDS011;10787;53.364;-1.480;2023-10-09T12:39:03;39.97;;;31.60;;
21258;SDS011;10787;53.364;-1.480;2023-10-09T12:41:49;30.15;;;21.92;;
21258;SDS011;10787;53.364;-1.480;2023-10-09T12:44:37;25.60;;;18.70;;
21258;SDS011;10787;53.364;-1.480;2023-10-09T12:47:26;29.67;;;22.45;;
21258;SDS011;10787;53.364;-1.480;2023-10-09T12:50:10;28.65;;;21.67;;
21258;SDS011;10787;53.364;-1.480;2023-10-09T12:52:57;18.10;;;13.98;;
21258;SDS011;10787;53.364;-1.480;2023-10-09T12:55:45;17.08;;;12.27;;
21258;SDS011;10787;53.364;-1.480;2023-10-09T12:58:31;17.98;;;12.98;;
21258;SDS011;10787;53.364;-1.480;2023-10-09T13:01:20;24.67;;;17.50;;
21258;SDS011;10787;53.364;-1.480;2023-10-09T13:04:04;24.45;;;18.70;;
21258;SDS011;10787;53.364;-1.480;2023-10-09T13:06:55;38.30;;;29.25;;
21258;SDS011;10787;53.364;-1.480;2023-10-09T13:09:46;29.92;;;22.17;;
21258;SDS011;10787;53.364;-1.480;2023-10-09T13:12:50;32.80;;;24.75;;
21258;SDS011;10787;53.364;-1.480;2023-10-09T13:15:39;47.03;;;36.92;;
21258;SDS011;10787;53.364;-1.480;2023-10-09T13:18:26;36.35;;;27.33;;
21258;SDS011;10787;53.364;-1.480;2023-10-09T13:21:11;37.72;;;27.55;;
21258;SDS011;10787;53.364;-1.480;2023-10-09T13:23:55;70.65;;;54.40;;
21258;SDS011;10787;53.364;-1.480;2023-10-09T13:26:41;68.43;;;51.67;;
21258;SDS011;10787;53.364;-1.480;2023-10-09T13:29:30;68.93;;;53.78;;
21258;SDS011;10787;53.364;-1.480;2023-10-09T13:32:17;87.88;;;70.22;;
21258;SDS011;10787;53.364;-1.480;2023-10-09T13:35:04;102.95;;;81.47;;
21258;SDS011;10787;53.364;-1.480;2023-10-09T13:37:49;130.55;;;103.90;;
21258;SDS011;10787;53.364;-1.480;2023-10-09T13:40:39;134.00;;;105.47;;
21258;SDS011;10787;53.364;-1.480;2023-10-09T13:43:23;131.60;;;105.00;;
21258;SDS011;10787;53.364;-1.480;2023-10-09T13:46:09;130.48;;;101.15;;
21258;SDS011;10787;53.364;-1.480;2023-10-09T13:48:55;125.75;;;99.10;;
21258;SDS011;10787;53.364;-1.480;2023-10-09T13:51:39;125.55;;;97.63;;
21258;SDS011;10787;53.364;-1.480;2023-10-09T13:54:30;125.47;;;97.18;;
21258;SDS011;10787;53.364;-1.480;2023-10-09T13:57:18;122.82;;;96.40;;
21258;SDS011;10787;53.364;-1.480;2023-10-09T14:00:06;116.07;;;90.22;;
21258;SDS011;10787;53.364;-1.480;2023-10-09T14:02:54;113.68;;;89.03;;
21258;SDS011;10787;53.364;-1.480;2023-10-09T14:05:39;110.53;;;87.18;;
21258;SDS011;10787;53.364;-1.480;2023-10-09T14:08:44;111.20;;;86.38;;
21258;SDS011;10787;53.364;-1.480;2023-10-09T14:11:28;103.00;;;81.95;;
21258;SDS011;10787;53.364;-1.480;2023-10-09T14:14:13;104.28;;;80.63;;
21258;SDS011;10787;53.364;-1.480;2023-10-09T14:17:00;97.00;;;74.55;;
21258;SDS011;10787;53.364;-1.480;2023-10-09T14:19:46;97.97;;;75.22;;
21258;SDS011;10787;53.364;-1.480;2023-10-09T14:22:31;96.05;;;72.85;;
21258;SDS011;10787;53.364;-1.480;2023-10-09T14:25:16;90.40;;;70.75;;
21258;SDS011;10787;53.364;-1.480;2023-10-09T14:28:05;88.35;;;68.40;;
21258;SDS011;10787;53.364;-1.480;2023-10-09T14:30:53;92.00;;;70.22;;
21258;SDS011;10787;53.364;-1.480;2023-10-09T14:33:42;87.25;;;67.85;;
21258;SDS011;10787;53.364;-1.480;2023-10-09T14:36:31;90.03;;;68.90;;
21258;SDS011;10787;53.364;-1.480;2023-10-09T14:39:18;87.63;;;67.97;;
21258;SDS011;10787;53.364;-1.480;2023-10-09T14:42:03;82.00;;;65.32;;
21258;SDS011;10787;53.364;-1.480;2023-10-09T14:44:53;68.53;;;54.50;;
21258;SDS011;10787;53.364;-1.480;2023-10-09T14:47:39;57.40;;;43.90;;
21258;SDS011;10787;53.364;-1.480;2023-10-09T14:50:23;50.22;;;38.05;;
21258;SDS011;10787;53.364;-1.480;2023-10-09T14:53:07;46.05;;;32.67;;
21258;SDS011;10787;53.364;-1.480;2023-10-09T14:55:55;11.88;;;8.38;;
21258;SDS011;10787;53.364;-1.480;2023-10-09T14:58:40;10.95;;;7.68;;
21258;SDS011;10787;53.364;-1.480;2023-10-09T15:01:25;8.80;;;6.28;;
21258;SDS011;10787;53.364;-1.480;2023-10-09T15:04:15;7.28;;;4.68;;
21258;SDS011;10787;53.364;-1.480;2023-10-09T15:06:59;5.43;;;4.03;;
21258;SDS011;10787;53.364;-1.480;2023-10-09T15:09:45;6.55;;;3.60;;
21258;SDS011;10787;53.364;-1.480;2023-10-09T15:12:30;5.82;;;3.97;;
21258;SDS011;10787;53.364;-1.480;2023-10-09T15:15:15;8.93;;;3.08;;
21258;SDS011;10787;53.364;-1.480;2023-10-09T15:18:00;5.72;;;3.10;;
21258;SDS011;10787;53.364;-1.480;2023-10-09T15:20:47;5.20;;;2.85;;
21258;SDS011;10787;53.364;-1.480;2023-10-09T15:23:32;7.15;;;2.70;;
21258;SDS011;10787;53.364;-1.480;2023-10-09T15:26:17;4.65;;;3.00;;
21258;SDS011;10787;53.364;-1.480;2023-10-09T15:29:02;6.40;;;3.17;;
21258;SDS011;10787;53.364;-1.480;2023-10-09T15:31:50;4.78;;;3.30;;
21258;SDS011;10787;53.364;-1.480;2023-10-09T15:34:34;6.45;;;3.40;;
21258;SDS011;10787;53.364;-1.480;2023-10-09T15:37:18;5.57;;;3.10;;
21258;SDS011;10787;53.364;-1.480;2023-10-09T15:40:04;6.28;;;3.28;;
21258;SDS011;10787;53.364;-1.480;2023-10-09T15:42:49;6.68;;;3.03;;
21258;SDS011;10787;53.364;-1.480;2023-10-09T15:45:39;8.02;;;3.20;;
21258;SDS011;10787;53.364;-1.480;2023-10-09T15:48:25;6.53;;;3.00;;
21258;SDS011;10787;53.364;-1.480;2023-10-09T15:51:10;6.05;;;2.83;;
21258;SDS011;10787;53.364;-1.480;2023-10-09T15:53:58;6.40;;;3.15;;
21258;SDS011;10787;53.364;-1.480;2023-10-09T15:56:43;4.05;;;2.90;;
21258;SDS011;10787;53.364;-1.480;2023-10-09T15:59:27;4.68;;;3.03;;
21258;SDS011;10787;53.364;-1.480;2023-10-09T16:02:11;4.95;;;3.20;;
21258;SDS011;10787;53.364;-1.480;2023-10-09T16:04:55;5.97;;;3.13;;
21258;SDS011;10787;53.364;-1.480;2023-10-09T16:07:41;4.72;;;3.10;;
21258;SDS011;10787;53.364;-1.480;2023-10-09T16:10:25;5.55;;;3.70;;
21258;SDS011;10787;53.364;-1.480;2023-10-09T16:13:10;4.47;;;3.15;;
21258;SDS011;10787;53.364;-1.480;2023-10-09T16:15:56;5.75;;;3.03;;
21258;SDS011;10787;53.364;-1.480;2023-10-09T16:18:43;8.13;;;4.63;;
21258;SDS011;10787;53.364;-1.480;2023-10-09T16:21:27;8.13;;;5.28;;
21258;SDS011;10787;53.364;-1.480;2023-10-09T16:24:13;7.75;;;4.53;;
21258;SDS011;10787;53.364;-1.480;2023-10-09T16:26:59;9.25;;;5.03;;
21258;SDS011;10787;53.364;-1.480;2023-10-09T16:29:43;9.02;;;4.85;;
21258;SDS011;10787;53.364;-1.480;2023-10-09T16:32:28;6.43;;;4.55;;
21258;SDS011;10787;53.364;-1.480;2023-10-09T16:35:16;11.73;;;5.50;;
21258;SDS011;10787;53.364;-1.480;2023-10-09T16:38:00;10.65;;;6.35;;
21258;SDS011;10787;53.364;-1.480;2023-10-09T16:40:52;10.40;;;5.45;;
21258;SDS011;10787;53.364;-1.480;2023-10-09T16:43:37;11.02;;;5.45;;
21258;SDS011;10787;53.364;-1.480;2023-10-09T16:46:26;7.05;;;4.65;;